sensor_id;sensor_type;location;lat;lon;timestamp;P1;durP1;ratioP1;P2;durP2;ratioP2
37303;SDS011;23188;51.188;16.374;2023-08-17T00:03:28;6.70;;;3.20;;
37303;SDS011;23188;51.188;16.374;2023-08-17T00:07:32;3.30;;;3.00;;
37303;SDS011;23188;51.188;16.374;2023-08-17T00:11:36;3.70;;;2.10;;
37303;SDS011;23188;51.188;16.374;2023-08-17T00:15:40;6.40;;;3.50;;
37303;SDS011;23188;51.188;16.374;2023-08-17T00:19:44;3.80;;;2.90;;
37303;SDS011;23188;51.188;16.374;2023-08-17T00:23:48;4.20;;;3.00;;
37303;SDS011;23188;51.188;16.374;2023-08-17T00:27:52;3.90;;;2.70;;
37303;SDS011;23188;51.188;16.374;2023-08-17T00:31:57;3.20;;;2.80;;
37303;SDS011;23188;51.188;16.374;2023-08-17T00:36:00;6.90;;;3.60;;
37303;SDS011;23188;51.188;16.374;2023-08-17T00:40:04;3.20;;;2.90;;
37303;SDS011;23188;51.188;16.374;2023-08-17T00:44:09;4.30;;;2.90;;
37303;SDS011;23188;51.188;16.374;2023-08-17T00:48:13;5.60;;;2.70;;
37303;SDS011;23188;51.188;16.374;2023-08-17T00:52:17;7.20;;;4.80;;
37303;SDS011;23188;51.188;16.374;2023-08-17T00:56:22;5.00;;;4.30;;
37303;SDS011;23188;51.188;16.374;2023-08-17T01:00:26;5.50;;;3.40;;
37303;SDS011;23188;51.188;16.374;2023-08-17T01:04:31;6.20;;;4.80;;
37303;SDS011;23188;51.188;16.374;2023-08-17T01:08:35;5.50;;;4.00;;
37303;SDS011;23188;51.188;16.374;2023-08-17T01:12:42;5.30;;;3.10;;
37303;SDS011;23188;51.188;16.374;2023-08-17T01:16:57;6.90;;;3.10;;
37303;SDS011;23188;51.188;16.374;2023-08-17T01:21:06;3.80;;;2.30;;
37303;SDS011;23188;51.188;16.374;2023-08-17T01:25:13;4.30;;;3.10;;
37303;SDS011;23188;51.188;16.374;2023-08-17T01:29:16;6.90;;;4.20;;
37303;SDS011;23188;51.188;16.374;2023-08-17T01:33:25;4.00;;;3.10;;
37303;SDS011;23188;51.188;16.374;2023-08-17T01:37:36;4.10;;;3.20;;
37303;SDS011;23188;51.188;16.374;2023-08-17T01:41:44;4.60;;;3.80;;
37303;SDS011;23188;51.188;16.374;2023-08-17T01:45:54;5.20;;;3.80;;
37303;SDS011;23188;51.188;16.374;2023-08-17T01:49:58;3.20;;;2.80;;
37303;SDS011;23188;51.188;16.374;2023-08-17T01:54:03;7.80;;;4.30;;
37303;SDS011;23188;51.188;16.374;2023-08-17T01:58:07;5.30;;;3.70;;
37303;SDS011;23188;51.188;16.374;2023-08-17T02:02:14;4.30;;;3.50;;
37303;SDS011;23188;51.188;16.374;2023-08-17T02:06:18;6.70;;;3.70;;
37303;SDS011;23188;51.188;16.374;2023-08-17T02:10:22;6.40;;;4.40;;
37303;SDS011;23188;51.188;16.374;2023-08-17T02:14:25;4.40;;;3.70;;
37303;SDS011;23188;51.188;16.374;2023-08-17T02:18:29;10.20;;;5.40;;
37303;SDS011;23188;51.188;16.374;2023-08-17T02:22:34;5.40;;;3.90;;
37303;SDS011;23188;51.188;16.374;2023-08-17T02:26:38;6.50;;;4.50;;
37303;SDS011;23188;51.188;16.374;2023-08-17T02:30:43;6.90;;;4.30;;
37303;SDS011;23188;51.188;16.374;2023-08-17T02:34:47;4.80;;;3.80;;
37303;SDS011;23188;51.188;16.374;2023-08-17T02:38:50;7.70;;;5.60;;
37303;SDS011;23188;51.188;16.374;2023-08-17T02:42:54;8.00;;;5.90;;
37303;SDS011;23188;51.188;16.374;2023-08-17T02:46:57;4.50;;;4.00;;
37303;SDS011;23188;51.188;16.374;2023-08-17T02:51:01;10.70;;;4.70;;
37303;SDS011;23188;51.188;16.374;2023-08-17T02:55:05;7.70;;;5.30;;
37303;SDS011;23188;51.188;16.374;2023-08-17T02:59:09;6.50;;;4.90;;
37303;SDS011;23188;51.188;16.374;2023-08-17T03:07:45;7.00;;;4.70;;
37303;SDS011;23188;51.188;16.374;2023-08-17T03:11:49;4.80;;;4.30;;
37303;SDS011;23188;51.188;16.374;2023-08-17T03:15:53;7.50;;;4.40;;
37303;SDS011;23188;51.188;16.374;2023-08-17T03:19:58;5.40;;;4.80;;
37303;SDS011;23188;51.188;16.374;2023-08-17T03:24:03;7.10;;;4.10;;
37303;SDS011;23188;51.188;16.374;2023-08-17T03:28:07;9.40;;;4.90;;
37303;SDS011;23188;51.188;16.374;2023-08-17T03:32:10;8.00;;;5.10;;
37303;SDS011;23188;51.188;16.374;2023-08-17T03:36:14;5.60;;;5.10;;
37303;SDS011;23188;51.188;16.374;2023-08-17T03:40:17;8.40;;;5.00;;
37303;SDS011;23188;51.188;16.374;2023-08-17T03:44:21;10.40;;;5.30;;
37303;SDS011;23188;51.188;16.374;2023-08-17T03:48:25;10.70;;;4.50;;
37303;SDS011;23188;51.188;16.374;2023-08-17T03:52:29;9.10;;;5.30;;
37303;SDS011;23188;51.188;16.374;2023-08-17T03:56:32;5.20;;;3.90;;
37303;SDS011;23188;51.188;16.374;2023-08-17T04:00:36;6.40;;;4.70;;
37303;SDS011;23188;51.188;16.374;2023-08-17T04:04:40;10.90;;;5.10;;
37303;SDS011;23188;51.188;16.374;2023-08-17T04:08:43;9.30;;;4.80;;
37303;SDS011;23188;51.188;16.374;2023-08-17T04:12:47;4.70;;;4.30;;
37303;SDS011;23188;51.188;16.374;2023-08-17T04:16:51;8.30;;;5.50;;
37303;SDS011;23188;51.188;16.374;2023-08-17T04:20:55;6.90;;;5.10;;
37303;SDS011;23188;51.188;16.374;2023-08-17T04:24:59;5.30;;;4.80;;
37303;SDS011;23188;51.188;16.374;2023-08-17T04:29:03;7.70;;;4.30;;
37303;SDS011;23188;51.188;16.374;2023-08-17T04:33:06;10.00;;;5.60;;
37303;SDS011;23188;51.188;16.374;2023-08-17T04:37:11;5.00;;;4.50;;
37303;SDS011;23188;51.188;16.374;2023-08-17T04:41:14;9.10;;;4.80;;
37303;SDS011;23188;51.188;16.374;2023-08-17T04:45:19;7.80;;;5.80;;
37303;SDS011;23188;51.188;16.374;2023-08-17T04:49:23;13.00;;;5.10;;
37303;SDS011;23188;51.188;16.374;2023-08-17T04:53:29;6.40;;;4.40;;
37303;SDS011;23188;51.188;16.374;2023-08-17T04:57:32;7.60;;;4.50;;
37303;SDS011;23188;51.188;16.374;2023-08-17T05:01:36;7.10;;;4.40;;
37303;SDS011;23188;51.188;16.374;2023-08-17T05:05:44;5.50;;;4.20;;
37303;SDS011;23188;51.188;16.374;2023-08-17T05:09:48;5.00;;;4.50;;
37303;SDS011;23188;51.188;16.374;2023-08-17T05:17:57;5.40;;;3.40;;
37303;SDS011;23188;51.188;16.374;2023-08-17T05:22:01;8.00;;;3.90;;
37303;SDS011;23188;51.188;16.374;2023-08-17T05:26:05;5.90;;;4.30;;
37303;SDS011;23188;51.188;16.374;2023-08-17T05:30:09;6.10;;;3.40;;
37303;SDS011;23188;51.188;16.374;2023-08-17T05:34:13;6.40;;;3.60;;
37303;SDS011;23188;51.188;16.374;2023-08-17T05:38:17;5.30;;;3.00;;
37303;SDS011;23188;51.188;16.374;2023-08-17T05:42:20;7.90;;;3.90;;
37303;SDS011;23188;51.188;16.374;2023-08-17T05:46:24;4.30;;;3.40;;
37303;SDS011;23188;51.188;16.374;2023-08-17T05:50:29;5.50;;;3.90;;
37303;SDS011;23188;51.188;16.374;2023-08-17T05:54:34;4.30;;;3.50;;
37303;SDS011;23188;51.188;16.374;2023-08-17T05:58:38;4.80;;;3.00;;
37303;SDS011;23188;51.188;16.374;2023-08-17T06:02:43;4.70;;;3.50;;
37303;SDS011;23188;51.188;16.374;2023-08-17T06:06:53;5.20;;;2.40;;
37303;SDS011;23188;51.188;16.374;2023-08-17T06:10:58;4.40;;;2.80;;
37303;SDS011;23188;51.188;16.374;2023-08-17T06:15:02;5.50;;;3.00;;
37303;SDS011;23188;51.188;16.374;2023-08-17T06:19:23;4.30;;;2.70;;
37303;SDS011;23188;51.188;16.374;2023-08-17T06:23:27;4.30;;;3.20;;
37303;SDS011;23188;51.188;16.374;2023-08-17T06:31:56;6.60;;;3.80;;
37303;SDS011;23188;51.188;16.374;2023-08-17T06:36:00;5.30;;;1.80;;
37303;SDS011;23188;51.188;16.374;2023-08-17T06:40:04;3.00;;;2.70;;
37303;SDS011;23188;51.188;16.374;2023-08-17T06:44:12;4.20;;;3.10;;
37303;SDS011;23188;51.188;16.374;2023-08-17T06:48:16;17.30;;;3.80;;
37303;SDS011;23188;51.188;16.374;2023-08-17T06:52:20;5.20;;;2.70;;
37303;SDS011;23188;51.188;16.374;2023-08-17T06:56:23;3.40;;;3.10;;
37303;SDS011;23188;51.188;16.374;2023-08-17T07:00:27;3.30;;;2.60;;
37303;SDS011;23188;51.188;16.374;2023-08-17T07:04:31;3.20;;;2.40;;
37303;SDS011;23188;51.188;16.374;2023-08-17T07:08:35;5.10;;;3.10;;
37303;SDS011;23188;51.188;16.374;2023-08-17T07:12:39;6.10;;;3.00;;
37303;SDS011;23188;51.188;16.374;2023-08-17T07:16:43;3.70;;;2.90;;
37303;SDS011;23188;51.188;16.374;2023-08-17T07:20:47;6.30;;;3.00;;
37303;SDS011;23188;51.188;16.374;2023-08-17T07:24:52;4.10;;;3.00;;
37303;SDS011;23188;51.188;16.374;2023-08-17T07:28:56;3.60;;;3.10;;
37303;SDS011;23188;51.188;16.374;2023-08-17T07:33:00;6.90;;;2.80;;
37303;SDS011;23188;51.188;16.374;2023-08-17T07:37:04;9.10;;;3.60;;
37303;SDS011;23188;51.188;16.374;2023-08-17T07:41:09;2.60;;;2.10;;
37303;SDS011;23188;51.188;16.374;2023-08-17T07:45:13;3.80;;;2.60;;
37303;SDS011;23188;51.188;16.374;2023-08-17T07:49:17;5.30;;;3.20;;
37303;SDS011;23188;51.188;16.374;2023-08-17T07:53:41;4.40;;;3.20;;
37303;SDS011;23188;51.188;16.374;2023-08-17T07:57:44;5.70;;;3.50;;
37303;SDS011;23188;51.188;16.374;2023-08-17T08:01:48;5.10;;;2.60;;
37303;SDS011;23188;51.188;16.374;2023-08-17T08:05:52;3.20;;;2.90;;
37303;SDS011;23188;51.188;16.374;2023-08-17T08:09:56;3.90;;;3.00;;
37303;SDS011;23188;51.188;16.374;2023-08-17T08:14:00;5.50;;;3.00;;
37303;SDS011;23188;51.188;16.374;2023-08-17T08:18:04;8.20;;;3.40;;
37303;SDS011;23188;51.188;16.374;2023-08-17T08:22:08;5.50;;;3.50;;
37303;SDS011;23188;51.188;16.374;2023-08-17T08:26:12;4.90;;;2.80;;
37303;SDS011;23188;51.188;16.374;2023-08-17T08:30:16;8.40;;;4.00;;
37303;SDS011;23188;51.188;16.374;2023-08-17T08:34:21;6.00;;;3.70;;
37303;SDS011;23188;51.188;16.374;2023-08-17T08:38:25;6.30;;;3.30;;
37303;SDS011;23188;51.188;16.374;2023-08-17T08:42:30;4.00;;;3.50;;
37303;SDS011;23188;51.188;16.374;2023-08-17T08:50:47;3.80;;;3.20;;
37303;SDS011;23188;51.188;16.374;2023-08-17T08:54:55;3.20;;;2.80;;
37303;SDS011;23188;51.188;16.374;2023-08-17T08:59:02;3.80;;;3.30;;
37303;SDS011;23188;51.188;16.374;2023-08-17T09:03:08;5.10;;;2.80;;
37303;SDS011;23188;51.188;16.374;2023-08-17T09:07:14;3.50;;;3.30;;
37303;SDS011;23188;51.188;16.374;2023-08-17T09:11:22;3.90;;;3.00;;
37303;SDS011;23188;51.188;16.374;2023-08-17T09:29:36;7.30;;;3.20;;
37303;SDS011;23188;51.188;16.374;2023-08-17T09:33:41;3.50;;;3.20;;
37303;SDS011;23188;51.188;16.374;2023-08-17T09:37:47;3.50;;;2.80;;
37303;SDS011;23188;51.188;16.374;2023-08-17T09:41:50;4.00;;;3.60;;
37303;SDS011;23188;51.188;16.374;2023-08-17T09:45:54;3.90;;;3.50;;
37303;SDS011;23188;51.188;16.374;2023-08-17T09:49:58;4.10;;;3.70;;
37303;SDS011;23188;51.188;16.374;2023-08-17T09:54:01;4.60;;;3.20;;
37303;SDS011;23188;51.188;16.374;2023-08-17T09:58:08;3.80;;;2.80;;
37303;SDS011;23188;51.188;16.374;2023-08-17T10:02:16;5.60;;;3.90;;
37303;SDS011;23188;51.188;16.374;2023-08-17T10:06:27;4.70;;;3.10;;
37303;SDS011;23188;51.188;16.374;2023-08-17T10:10:34;4.50;;;2.90;;
37303;SDS011;23188;51.188;16.374;2023-08-17T10:14:53;4.10;;;3.70;;
37303;SDS011;23188;51.188;16.374;2023-08-17T10:19:07;4.30;;;3.80;;
37303;SDS011;23188;51.188;16.374;2023-08-17T10:23:17;4.70;;;3.50;;
37303;SDS011;23188;51.188;16.374;2023-08-17T10:27:23;4.60;;;3.10;;
37303;SDS011;23188;51.188;16.374;2023-08-17T10:31:34;5.60;;;3.10;;
37303;SDS011;23188;51.188;16.374;2023-08-17T10:35:38;6.90;;;4.40;;
37303;SDS011;23188;51.188;16.374;2023-08-17T10:39:47;4.60;;;4.00;;
37303;SDS011;23188;51.188;16.374;2023-08-17T10:44:00;4.80;;;3.20;;
37303;SDS011;23188;51.188;16.374;2023-08-17T10:52:11;3.20;;;2.90;;
37303;SDS011;23188;51.188;16.374;2023-08-17T10:56:16;4.70;;;3.10;;
37303;SDS011;23188;51.188;16.374;2023-08-17T11:00:22;2.60;;;2.40;;
37303;SDS011;23188;51.188;16.374;2023-08-17T11:04:32;2.30;;;1.80;;
37303;SDS011;23188;51.188;16.374;2023-08-17T11:08:40;3.80;;;3.10;;
37303;SDS011;23188;51.188;16.374;2023-08-17T11:12:58;2.50;;;2.20;;
37303;SDS011;23188;51.188;16.374;2023-08-17T11:17:02;3.60;;;2.80;;
37303;SDS011;23188;51.188;16.374;2023-08-17T11:21:08;4.10;;;3.60;;
37303;SDS011;23188;51.188;16.374;2023-08-17T11:25:15;3.70;;;3.30;;
37303;SDS011;23188;51.188;16.374;2023-08-17T11:29:18;2.70;;;2.50;;
37303;SDS011;23188;51.188;16.374;2023-08-17T11:33:22;2.50;;;2.20;;
37303;SDS011;23188;51.188;16.374;2023-08-17T11:37:25;3.50;;;2.60;;
37303;SDS011;23188;51.188;16.374;2023-08-17T11:41:28;3.40;;;2.30;;
37303;SDS011;23188;51.188;16.374;2023-08-17T11:45:32;3.70;;;3.30;;
37303;SDS011;23188;51.188;16.374;2023-08-17T11:49:37;4.80;;;4.40;;
37303;SDS011;23188;51.188;16.374;2023-08-17T11:53:41;4.80;;;3.50;;
37303;SDS011;23188;51.188;16.374;2023-08-17T11:57:51;3.00;;;2.70;;
37303;SDS011;23188;51.188;16.374;2023-08-17T12:01:56;5.20;;;4.70;;
37303;SDS011;23188;51.188;16.374;2023-08-17T12:06:00;4.40;;;3.60;;
37303;SDS011;23188;51.188;16.374;2023-08-17T12:10:04;3.90;;;3.30;;
37303;SDS011;23188;51.188;16.374;2023-08-17T12:14:08;3.40;;;3.10;;
37303;SDS011;23188;51.188;16.374;2023-08-17T12:18:13;4.30;;;3.90;;
37303;SDS011;23188;51.188;16.374;2023-08-17T12:22:22;3.20;;;2.90;;
37303;SDS011;23188;51.188;16.374;2023-08-17T12:26:31;4.20;;;3.50;;
37303;SDS011;23188;51.188;16.374;2023-08-17T12:30:37;4.20;;;3.90;;
37303;SDS011;23188;51.188;16.374;2023-08-17T12:34:41;5.10;;;3.80;;
37303;SDS011;23188;51.188;16.374;2023-08-17T12:38:45;4.20;;;3.90;;
37303;SDS011;23188;51.188;16.374;2023-08-17T12:42:51;6.10;;;3.50;;
37303;SDS011;23188;51.188;16.374;2023-08-17T12:46:55;4.20;;;3.60;;
37303;SDS011;23188;51.188;16.374;2023-08-17T12:50:58;4.50;;;4.00;;
37303;SDS011;23188;51.188;16.374;2023-08-17T12:55:03;5.60;;;4.40;;
37303;SDS011;23188;51.188;16.374;2023-08-17T12:59:09;5.90;;;4.20;;
37303;SDS011;23188;51.188;16.374;2023-08-17T13:03:12;4.80;;;4.10;;
37303;SDS011;23188;51.188;16.374;2023-08-17T13:07:18;6.30;;;5.00;;
37303;SDS011;23188;51.188;16.374;2023-08-17T13:11:21;5.00;;;4.60;;
37303;SDS011;23188;51.188;16.374;2023-08-17T13:15:25;5.00;;;4.50;;
37303;SDS011;23188;51.188;16.374;2023-08-17T13:19:28;6.50;;;5.50;;
37303;SDS011;23188;51.188;16.374;2023-08-17T13:23:32;6.20;;;4.00;;
37303;SDS011;23188;51.188;16.374;2023-08-17T13:27:35;6.60;;;4.60;;
37303;SDS011;23188;51.188;16.374;2023-08-17T13:31:39;8.90;;;5.10;;
37303;SDS011;23188;51.188;16.374;2023-08-17T13:35:42;5.00;;;4.50;;
37303;SDS011;23188;51.188;16.374;2023-08-17T13:39:46;7.10;;;5.10;;
37303;SDS011;23188;51.188;16.374;2023-08-17T13:43:50;6.10;;;4.50;;
37303;SDS011;23188;51.188;16.374;2023-08-17T13:47:55;5.90;;;5.30;;
37303;SDS011;23188;51.188;16.374;2023-08-17T13:52:01;5.90;;;4.40;;
37303;SDS011;23188;51.188;16.374;2023-08-17T13:56:05;6.60;;;4.10;;
37303;SDS011;23188;51.188;16.374;2023-08-17T14:00:09;8.70;;;4.90;;
37303;SDS011;23188;51.188;16.374;2023-08-17T14:04:15;5.50;;;4.80;;
37303;SDS011;23188;51.188;16.374;2023-08-17T14:08:32;6.90;;;5.80;;
37303;SDS011;23188;51.188;16.374;2023-08-17T14:12:35;8.00;;;4.90;;
37303;SDS011;23188;51.188;16.374;2023-08-17T14:16:41;5.70;;;4.70;;
37303;SDS011;23188;51.188;16.374;2023-08-17T14:20:45;6.50;;;5.10;;
37303;SDS011;23188;51.188;16.374;2023-08-17T14:24:49;4.60;;;4.20;;
37303;SDS011;23188;51.188;16.374;2023-08-17T14:28:53;5.80;;;5.30;;
37303;SDS011;23188;51.188;16.374;2023-08-17T14:32:57;6.50;;;5.90;;
37303;SDS011;23188;51.188;16.374;2023-08-17T14:37:04;4.90;;;4.10;;
37303;SDS011;23188;51.188;16.374;2023-08-17T14:41:08;16.60;;;5.00;;
37303;SDS011;23188;51.188;16.374;2023-08-17T14:45:12;7.10;;;6.50;;
37303;SDS011;23188;51.188;16.374;2023-08-17T14:49:15;10.30;;;6.70;;
37303;SDS011;23188;51.188;16.374;2023-08-17T14:53:19;5.20;;;4.70;;
37303;SDS011;23188;51.188;16.374;2023-08-17T14:57:23;7.10;;;5.80;;
37303;SDS011;23188;51.188;16.374;2023-08-17T15:01:27;5.00;;;4.60;;
37303;SDS011;23188;51.188;16.374;2023-08-17T15:05:31;7.20;;;5.10;;
37303;SDS011;23188;51.188;16.374;2023-08-17T15:09:40;6.20;;;5.20;;
37303;SDS011;23188;51.188;16.374;2023-08-17T15:13:44;4.70;;;4.30;;
37303;SDS011;23188;51.188;16.374;2023-08-17T15:17:47;5.40;;;4.90;;
37303;SDS011;23188;51.188;16.374;2023-08-17T15:21:51;5.80;;;4.90;;
37303;SDS011;23188;51.188;16.374;2023-08-17T15:25:54;5.00;;;4.00;;
37303;SDS011;23188;51.188;16.374;2023-08-17T15:29:57;6.70;;;4.90;;
37303;SDS011;23188;51.188;16.374;2023-08-17T15:34:01;5.70;;;4.80;;
37303;SDS011;23188;51.188;16.374;2023-08-17T15:38:04;5.90;;;4.40;;
37303;SDS011;23188;51.188;16.374;2023-08-17T15:42:08;10.60;;;6.00;;
37303;SDS011;23188;51.188;16.374;2023-08-17T15:46:11;7.30;;;6.60;;
37303;SDS011;23188;51.188;16.374;2023-08-17T15:50:15;8.00;;;5.80;;
37303;SDS011;23188;51.188;16.374;2023-08-17T15:54:18;4.00;;;2.60;;
37303;SDS011;23188;51.188;16.374;2023-08-17T15:58:37;6.50;;;1.90;;
37303;SDS011;23188;51.188;16.374;2023-08-17T16:02:40;6.30;;;2.50;;
37303;SDS011;23188;51.188;16.374;2023-08-17T16:06:43;3.60;;;1.90;;
37303;SDS011;23188;51.188;16.374;2023-08-17T16:10:46;6.40;;;2.10;;
37303;SDS011;23188;51.188;16.374;2023-08-17T16:18:54;2.80;;;2.30;;
37303;SDS011;23188;51.188;16.374;2023-08-17T16:22:58;4.80;;;2.10;;
37303;SDS011;23188;51.188;16.374;2023-08-17T16:27:01;2.80;;;1.90;;
37303;SDS011;23188;51.188;16.374;2023-08-17T16:31:04;3.00;;;1.80;;
37303;SDS011;23188;51.188;16.374;2023-08-17T16:35:08;2.60;;;2.40;;
37303;SDS011;23188;51.188;16.374;2023-08-17T16:39:11;4.10;;;2.90;;
37303;SDS011;23188;51.188;16.374;2023-08-17T16:43:16;2.40;;;2.20;;
37303;SDS011;23188;51.188;16.374;2023-08-17T16:47:22;2.80;;;2.30;;
37303;SDS011;23188;51.188;16.374;2023-08-17T16:51:30;3.30;;;3.00;;
37303;SDS011;23188;51.188;16.374;2023-08-17T16:55:39;4.60;;;2.40;;
37303;SDS011;23188;51.188;16.374;2023-08-17T16:59:42;4.60;;;3.30;;
37303;SDS011;23188;51.188;16.374;2023-08-17T17:03:47;14.30;;;5.10;;
37303;SDS011;23188;51.188;16.374;2023-08-17T17:07:52;4.40;;;3.10;;
37303;SDS011;23188;51.188;16.374;2023-08-17T17:11:57;6.60;;;2.90;;
37303;SDS011;23188;51.188;16.374;2023-08-17T17:16:00;2.70;;;2.10;;
37303;SDS011;23188;51.188;16.374;2023-08-17T17:20:04;3.80;;;2.80;;
37303;SDS011;23188;51.188;16.374;2023-08-17T17:24:10;3.00;;;2.50;;
37303;SDS011;23188;51.188;16.374;2023-08-17T17:28:15;3.30;;;2.60;;
37303;SDS011;23188;51.188;16.374;2023-08-17T17:32:18;2.70;;;2.20;;
37303;SDS011;23188;51.188;16.374;2023-08-17T17:36:21;6.80;;;2.80;;
37303;SDS011;23188;51.188;16.374;2023-08-17T17:40:25;4.00;;;2.80;;
37303;SDS011;23188;51.188;16.374;2023-08-17T17:44:28;11.00;;;5.30;;
37303;SDS011;23188;51.188;16.374;2023-08-17T17:48:31;2.90;;;2.70;;
37303;SDS011;23188;51.188;16.374;2023-08-17T17:52:36;4.50;;;3.40;;
37303;SDS011;23188;51.188;16.374;2023-08-17T17:56:42;6.20;;;3.40;;
37303;SDS011;23188;51.188;16.374;2023-08-17T18:00:47;5.20;;;3.10;;
37303;SDS011;23188;51.188;16.374;2023-08-17T18:04:50;3.90;;;3.20;;
37303;SDS011;23188;51.188;16.374;2023-08-17T18:08:58;5.70;;;3.00;;
37303;SDS011;23188;51.188;16.374;2023-08-17T18:13:02;3.80;;;3.20;;
37303;SDS011;23188;51.188;16.374;2023-08-17T18:17:05;4.10;;;2.80;;
37303;SDS011;23188;51.188;16.374;2023-08-17T18:21:09;3.70;;;3.00;;
37303;SDS011;23188;51.188;16.374;2023-08-17T18:25:13;4.80;;;4.00;;
37303;SDS011;23188;51.188;16.374;2023-08-17T18:29:18;6.30;;;3.80;;
37303;SDS011;23188;51.188;16.374;2023-08-17T18:33:21;3.80;;;2.70;;
37303;SDS011;23188;51.188;16.374;2023-08-17T18:37:29;3.40;;;2.70;;
37303;SDS011;23188;51.188;16.374;2023-08-17T18:41:32;5.80;;;4.10;;
37303;SDS011;23188;51.188;16.374;2023-08-17T18:45:36;4.60;;;3.60;;
37303;SDS011;23188;51.188;16.374;2023-08-17T18:49:40;6.90;;;3.10;;
37303;SDS011;23188;51.188;16.374;2023-08-17T18:53:43;5.10;;;3.00;;
37303;SDS011;23188;51.188;16.374;2023-08-17T18:57:48;7.10;;;2.80;;
37303;SDS011;23188;51.188;16.374;2023-08-17T19:01:53;6.00;;;3.90;;
37303;SDS011;23188;51.188;16.374;2023-08-17T19:05:57;5.90;;;4.10;;
37303;SDS011;23188;51.188;16.374;2023-08-17T19:10:00;4.20;;;3.50;;
37303;SDS011;23188;51.188;16.374;2023-08-17T19:14:05;4.70;;;3.70;;
37303;SDS011;23188;51.188;16.374;2023-08-17T19:18:10;3.60;;;2.80;;
37303;SDS011;23188;51.188;16.374;2023-08-17T19:22:14;6.10;;;3.70;;
37303;SDS011;23188;51.188;16.374;2023-08-17T19:26:17;5.50;;;3.20;;
37303;SDS011;23188;51.188;16.374;2023-08-17T19:30:22;4.30;;;3.90;;
37303;SDS011;23188;51.188;16.374;2023-08-17T19:34:25;3.90;;;3.50;;
37303;SDS011;23188;51.188;16.374;2023-08-17T19:38:29;5.20;;;4.40;;
37303;SDS011;23188;51.188;16.374;2023-08-17T19:42:35;9.30;;;4.40;;
37303;SDS011;23188;51.188;16.374;2023-08-17T19:46:39;6.80;;;4.10;;
37303;SDS011;23188;51.188;16.374;2023-08-17T19:50:42;4.30;;;3.40;;
37303;SDS011;23188;51.188;16.374;2023-08-17T19:54:46;5.80;;;4.50;;
37303;SDS011;23188;51.188;16.374;2023-08-17T19:58:54;6.30;;;4.10;;
37303;SDS011;23188;51.188;16.374;2023-08-17T20:02:58;7.60;;;5.20;;
37303;SDS011;23188;51.188;16.374;2023-08-17T20:07:02;8.20;;;6.60;;
37303;SDS011;23188;51.188;16.374;2023-08-17T20:11:06;7.10;;;5.00;;
37303;SDS011;23188;51.188;16.374;2023-08-17T20:15:14;10.10;;;6.10;;
37303;SDS011;23188;51.188;16.374;2023-08-17T20:19:18;7.60;;;6.80;;
37303;SDS011;23188;51.188;16.374;2023-08-17T20:23:22;13.20;;;10.10;;
37303;SDS011;23188;51.188;16.374;2023-08-17T20:27:26;10.40;;;5.90;;
37303;SDS011;23188;51.188;16.374;2023-08-17T20:31:30;7.70;;;5.90;;
37303;SDS011;23188;51.188;16.374;2023-08-17T20:35:33;5.70;;;5.20;;
37303;SDS011;23188;51.188;16.374;2023-08-17T20:39:37;8.50;;;5.80;;
37303;SDS011;23188;51.188;16.374;2023-08-17T20:43:41;5.70;;;5.10;;
37303;SDS011;23188;51.188;16.374;2023-08-17T20:47:44;5.70;;;5.10;;
37303;SDS011;23188;51.188;16.374;2023-08-17T20:51:49;8.90;;;5.50;;
37303;SDS011;23188;51.188;16.374;2023-08-17T20:55:54;5.40;;;4.30;;
37303;SDS011;23188;51.188;16.374;2023-08-17T20:59:57;13.10;;;6.80;;
37303;SDS011;23188;51.188;16.374;2023-08-17T21:04:01;10.80;;;7.40;;
37303;SDS011;23188;51.188;16.374;2023-08-17T21:08:04;6.00;;;5.40;;
37303;SDS011;23188;51.188;16.374;2023-08-17T21:12:09;5.60;;;5.00;;
37303;SDS011;23188;51.188;16.374;2023-08-17T21:16:12;6.20;;;5.70;;
37303;SDS011;23188;51.188;16.374;2023-08-17T21:20:16;7.70;;;5.50;;
37303;SDS011;23188;51.188;16.374;2023-08-17T21:24:20;6.00;;;5.40;;
37303;SDS011;23188;51.188;16.374;2023-08-17T21:28:23;11.00;;;6.20;;
37303;SDS011;23188;51.188;16.374;2023-08-17T21:32:28;7.90;;;7.20;;
37303;SDS011;23188;51.188;16.374;2023-08-17T21:36:32;7.20;;;6.20;;
37303;SDS011;23188;51.188;16.374;2023-08-17T21:40:35;12.20;;;8.00;;
37303;SDS011;23188;51.188;16.374;2023-08-17T21:44:38;9.70;;;7.80;;
37303;SDS011;23188;51.188;16.374;2023-08-17T21:48:42;8.30;;;7.40;;
37303;SDS011;23188;51.188;16.374;2023-08-17T21:52:46;12.10;;;8.30;;
37303;SDS011;23188;51.188;16.374;2023-08-17T21:56:49;9.00;;;8.10;;
37303;SDS011;23188;51.188;16.374;2023-08-17T22:00:53;8.00;;;6.80;;
37303;SDS011;23188;51.188;16.374;2023-08-17T22:04:56;11.20;;;8.50;;
37303;SDS011;23188;51.188;16.374;2023-08-17T22:09:00;11.60;;;9.00;;
37303;SDS011;23188;51.188;16.374;2023-08-17T22:13:04;12.30;;;7.90;;
37303;SDS011;23188;51.188;16.374;2023-08-17T22:17:07;10.20;;;8.60;;
37303;SDS011;23188;51.188;16.374;2023-08-17T22:21:10;10.80;;;8.00;;
37303;SDS011;23188;51.188;16.374;2023-08-17T22:25:14;10.20;;;8.30;;
37303;SDS011;23188;51.188;16.374;2023-08-17T22:29:17;12.90;;;9.30;;
37303;SDS011;23188;51.188;16.374;2023-08-17T22:33:20;22.60;;;10.00;;
37303;SDS011;23188;51.188;16.374;2023-08-17T22:37:23;7.60;;;6.70;;
37303;SDS011;23188;51.188;16.374;2023-08-17T22:41:26;9.60;;;7.30;;
37303;SDS011;23188;51.188;16.374;2023-08-17T22:45:29;7.70;;;6.20;;
37303;SDS011;23188;51.188;16.374;2023-08-17T22:49:32;13.20;;;6.60;;
37303;SDS011;23188;51.188;16.374;2023-08-17T22:53:35;9.70;;;8.20;;
37303;SDS011;23188;51.188;16.374;2023-08-17T22:57:38;9.80;;;7.90;;
37303;SDS011;23188;51.188;16.374;2023-08-17T23:01:41;9.20;;;8.30;;
37303;SDS011;23188;51.188;16.374;2023-08-17T23:05:44;8.00;;;7.20;;
37303;SDS011;23188;51.188;16.374;2023-08-17T23:09:47;10.70;;;7.70;;
37303;SDS011;23188;51.188;16.374;2023-08-17T23:13:50;18.00;;;9.10;;
37303;SDS011;23188;51.188;16.374;2023-08-17T23:17:53;8.90;;;7.60;;
37303;SDS011;23188;51.188;16.374;2023-08-17T23:21:57;14.90;;;10.30;;
37303;SDS011;23188;51.188;16.374;2023-08-17T23:26:00;12.40;;;8.20;;
37303;SDS011;23188;51.188;16.374;2023-08-17T23:30:06;12.20;;;7.90;;
37303;SDS011;23188;51.188;16.374;2023-08-17T23:34:09;10.00;;;8.10;;
37303;SDS011;23188;51.188;16.374;2023-08-17T23:38:12;9.00;;;8.10;;
37303;SDS011;23188;51.188;16.374;2023-08-17T23:42:15;8.80;;;7.80;;
37303;SDS011;23188;51.188;16.374;2023-08-17T23:46:18;11.70;;;8.80;;
37303;SDS011;23188;51.188;16.374;2023-08-17T23:50:21;12.90;;;10.50;;
37303;SDS011;23188;51.188;16.374;2023-08-17T23:54:24;13.00;;;10.50;;
37303;SDS011;23188;51.188;16.374;2023-08-17T23:58:28;11.00;;;8.40;;
